Time;durP1;ratioP1;P1;durP2;ratioP2;P2;SDS_P1;SDS_P2;PMS_P1;PMS_P2;Temp;Humidity;BMP_temperature;BMP_pressure;BME280_temperature;BME280_humidity;BME280_pressure;Samples;Min_cycle;Max_cycle;Signal;HPM_P1;HPM_P2
2021/12/17 00:00:48;;;;;;;14.57;5.93;;;5.00;99.90;;;;;;5016443;28;20215;-66
2021/12/17 00:03:32;;;;;;;16.27;5.77;;;5.00;99.90;;;;;;5016192;28;20219;-67
2021/12/17 00:06:16;;;;;;;18.47;6.67;;;5.00;99.90;;;;;;5016594;28;20211;-67
2021/12/17 00:08:47;;;;;;;24.63;6.47;;;5.00;99.90;;;;;;5010898;28;20199;-66
2021/12/17 00:11:14;;;;;;;17.97;6.80;;;5.00;99.90;;;;;;5010335;28;20641;-67
2021/12/17 00:13:43;;;;;;;17.03;6.33;;;5.10;99.90;;;;;;5009799;28;20297;-66
2021/12/17 00:16:18;;;;;;;18.17;6.30;;;5.00;99.90;;;;;;5009368;28;20231;-66
2021/12/17 00:19:01;;;;;;;17.67;6.13;;;5.00;99.90;;;;;;5018682;28;20202;-66
2021/12/17 00:49:23;;;;;;;16.27;5.20;;;5.10;99.90;;;;;;5031635;28;20205;-66
2021/12/17 00:51:58;;;;;;;11.93;4.83;;;5.10;99.90;;;;;;5013836;28;20210;-66
2021/12/17 00:54:32;;;;;;;15.90;4.87;;;5.10;99.90;;;;;;5013763;28;20255;-66
2021/12/17 00:57:05;;;;;;;12.47;4.63;;;5.10;99.90;;;;;;5013813;28;20235;-65
2021/12/17 00:59:32;;;;;;;15.27;4.67;;;5.10;99.90;;;;;;5025173;28;20253;-66
2021/12/17 01:02:04;;;;;;;11.90;4.70;;;5.10;99.90;;;;;;5019138;28;20286;-67
2021/12/17 01:04:31;;;;;;;11.37;4.47;;;5.10;99.90;;;;;;5027412;28;20685;-66
2021/12/17 01:06:58;;;;;;;12.10;4.53;;;5.20;99.90;;;;;;5028316;28;20644;-66
2021/12/17 01:09:27;;;;;;;13.27;4.50;;;5.20;99.90;;;;;;5025170;28;20580;-65
2021/12/17 01:11:55;;;;;;;19.07;4.73;;;5.20;99.90;;;;;;5015247;28;20275;-66
2021/12/17 01:14:24;;;;;;;15.00;5.30;;;5.30;99.90;;;;;;5013697;28;20290;-66
2021/12/17 01:16:53;;;;;;;19.73;4.97;;;5.30;99.90;;;;;;5021900;28;20325;-65
2021/12/17 01:19:29;;;;;;;14.33;4.07;;;5.30;99.90;;;;;;5022525;28;20297;-67
2021/12/17 01:22:14;;;;;;;14.57;4.43;;;5.30;99.90;;;;;;5030416;28;20719;-66
2021/12/17 01:24:47;;;;;;;13.33;4.93;;;5.30;99.90;;;;;;5013008;28;20265;-66
2021/12/17 01:35:44;;;;;;;12.87;4.90;;;5.30;99.90;;;;;;4989642;28;20208;-67
2021/12/17 01:41:22;;;;;;;14.40;4.93;;;5.30;99.90;;;;;;5027998;28;20225;-66
2021/12/17 01:43:51;;;;;;;13.90;4.93;;;5.30;99.90;;;;;;5013171;28;20650;-66
2021/12/17 01:46:21;;;;;;;14.17;4.50;;;5.30;99.90;;;;;;5013204;28;20306;-66
2021/12/17 01:48:59;;;;;;;15.73;4.47;;;5.30;99.90;;;;;;5026410;28;20210;-67
2021/12/17 01:59:17;;;;;;;11.20;4.57;;;5.30;99.90;;;;;;5019052;28;20230;-66
2021/12/17 01:59:44;;;;;;;9.60;4.07;;;5.40;99.90;;;;;;5028103;28;20293;-66
2021/12/17 02:02:12;;;;;;;12.30;4.60;;;5.40;99.90;;;;;;5013680;28;20488;-66
2021/12/17 02:04:39;;;;;;;11.53;3.90;;;5.30;99.90;;;;;;5026939;28;20202;-66
2021/12/17 02:07:07;;;;;;;17.87;5.27;;;5.40;99.90;;;;;;5019130;28;20649;-66
2021/12/17 02:10:08;;;;;;;14.87;5.47;;;5.40;99.90;;;;;;5030512;28;20246;-64
2021/12/17 02:12:43;;;;;;;14.30;4.03;;;5.40;99.90;;;;;;5023358;28;20207;-66
2021/12/17 02:21:33;;;;;;;12.20;3.70;;;5.30;99.90;;;;;;4975834;28;20241;-67
2021/12/17 02:29:45;;;;;;;14.73;4.07;;;5.30;99.90;;;;;;5020996;28;20790;-65
2021/12/17 02:32:13;;;;;;;12.47;4.77;;;5.30;99.90;;;;;;5030253;28;20690;-66
2021/12/17 02:35:01;;;;;;;12.93;4.13;;;5.30;99.90;;;;;;5027043;28;20230;-66
2021/12/17 02:37:31;;;;;;;15.87;5.10;;;5.30;99.90;;;;;;5024969;28;20210;-65
2021/12/17 02:40:12;;;;;;;9.53;3.33;;;5.30;99.90;;;;;;5029823;28;20663;-66
2021/12/17 02:45:31;;;;;;;12.47;3.60;;;5.20;99.90;;;;;;5012921;28;20230;-65
2021/12/17 02:45:36;;;;;;;10.30;4.10;;;5.30;99.90;;;;;;5011747;28;20207;-66
2021/12/17 02:48:07;;;;;;;12.20;4.13;;;5.30;99.90;;;;;;5014665;28;20217;-65
2021/12/17 02:50:35;;;;;;;12.57;3.83;;;5.30;99.90;;;;;;5020829;28;20274;-65
2021/12/17 02:53:07;;;;;;;11.07;3.90;;;5.30;99.90;;;;;;5011456;28;20208;-66
2021/12/17 02:55:37;;;;;;;13.00;3.63;;;5.30;99.90;;;;;;5012103;28;20581;-66
2021/12/17 02:58:05;;;;;;;15.40;4.73;;;5.30;99.90;;;;;;5011723;28;20331;-67
2021/12/17 03:00:34;;;;;;;13.57;4.60;;;5.30;99.90;;;;;;5013018;28;20243;-67
2021/12/17 03:03:03;;;;;;;12.33;4.20;;;5.20;99.90;;;;;;5016557;28;20329;-67
2021/12/17 03:05:31;;;;;;;13.50;4.47;;;5.30;99.90;;;;;;5011562;28;20238;-66
2021/12/17 03:07:58;;;;;;;11.23;4.13;;;5.30;99.90;;;;;;5016409;28;20235;-66
2021/12/17 03:10:27;;;;;;;14.80;3.93;;;5.30;99.90;;;;;;5011541;28;20217;-66
2021/12/17 03:12:58;;;;;;;10.60;3.73;;;5.30;99.90;;;;;;5012535;28;20649;-65
2021/12/17 03:15:33;;;;;;;13.43;4.60;;;5.30;99.90;;;;;;5011581;28;20223;-65
2021/12/17 03:23:32;;;;;;;13.40;4.50;;;5.40;99.90;;;;;;5011580;28;20210;-66
2021/12/17 03:26:02;;;;;;;8.53;3.20;;;5.30;99.90;;;;;;5019394;28;20213;-65
2021/12/17 03:28:29;;;;;;;9.83;3.57;;;5.30;99.90;;;;;;5016751;28;20735;-65
2021/12/17 03:30:57;;;;;;;14.30;3.90;;;5.30;99.90;;;;;;5018009;28;20285;-67
2021/12/17 03:33:24;;;;;;;8.63;3.30;;;5.30;99.90;;;;;;5018061;28;20215;-66
2021/12/17 03:35:51;;;;;;;12.53;4.10;;;5.30;99.90;;;;;;5015672;28;20248;-65
2021/12/17 03:38:19;;;;;;;13.27;3.43;;;5.30;99.90;;;;;;5019419;28;20318;-65
2021/12/17 03:40:47;;;;;;;11.70;4.23;;;5.30;99.90;;;;;;5015061;28;20651;-66
2021/12/17 03:43:22;;;;;;;16.30;3.80;;;5.30;99.90;;;;;;5030975;28;20218;-66
2021/12/17 03:45:50;;;;;;;13.53;3.57;;;5.30;99.90;;;;;;5017289;28;20328;-66
2021/12/17 03:48:17;;;;;;;13.07;3.50;;;5.30;99.90;;;;;;5027929;28;20653;-67
2021/12/17 03:50:44;;;;;;;15.80;3.53;;;5.30;99.90;;;;;;5031924;28;20305;-67
2021/12/17 03:53:11;;;;;;;15.47;4.33;;;5.30;99.90;;;;;;5016404;28;20293;-66
2021/12/17 03:55:38;;;;;;;9.03;3.40;;;5.40;99.90;;;;;;5020642;28;20238;-66
2021/12/17 03:58:05;;;;;;;10.97;3.13;;;5.30;99.90;;;;;;5010685;28;20739;-66
2021/12/17 04:00:34;;;;;;;17.13;4.47;;;5.40;99.90;;;;;;5011447;28;20635;-66
2021/12/17 04:03:02;;;;;;;11.00;3.37;;;5.30;99.90;;;;;;5010841;28;20234;-66
2021/12/17 04:05:29;;;;;;;12.87;3.40;;;5.30;99.90;;;;;;5011995;28;20222;-66
2021/12/17 04:07:56;;;;;;;11.17;3.47;;;5.30;99.90;;;;;;5016949;28;20214;-66
2021/12/17 04:10:24;;;;;;;11.17;3.53;;;5.30;99.90;;;;;;5015380;28;20270;-67
2021/12/17 04:12:56;;;;;;;12.13;3.47;;;5.30;99.90;;;;;;5014401;28;20204;-65
2021/12/17 04:15:33;;;;;;;11.47;2.87;;;5.30;99.90;;;;;;5018642;28;20213;-65
2021/12/17 04:18:04;;;;;;;11.53;3.60;;;5.30;99.90;;;;;;5021962;28;20222;-66
2021/12/17 04:20:31;;;;;;;11.30;4.50;;;5.30;99.90;;;;;;5017852;28;20623;-67
2021/12/17 04:22:58;;;;;;;17.33;4.27;;;5.30;99.90;;;;;;5022873;28;20302;-66
2021/12/17 04:25:25;;;;;;;18.03;4.07;;;5.30;99.90;;;;;;5017606;28;20266;-66
2021/12/17 04:27:52;;;;;;;15.97;3.73;;;5.20;99.90;;;;;;5024958;28;20210;-66
2021/12/17 04:30:19;;;;;;;11.63;3.70;;;5.20;99.90;;;;;;5013833;28;20290;-66
2021/12/17 04:32:46;;;;;;;11.93;3.57;;;5.30;99.90;;;;;;5014281;28;20262;-67
2021/12/17 04:35:14;;;;;;;10.00;3.50;;;5.20;99.90;;;;;;5014182;28;20211;-66
2021/12/17 04:37:41;;;;;;;10.63;3.90;;;5.20;99.90;;;;;;5023525;28;20306;-66
2021/12/17 04:40:09;;;;;;;16.30;4.10;;;5.20;99.90;;;;;;5025465;28;20249;-65
2021/12/17 04:42:44;;;;;;;15.43;4.37;;;5.20;99.90;;;;;;5016700;28;20239;-65
2021/12/17 04:45:11;;;;;;;14.10;3.63;;;5.20;99.90;;;;;;5014648;28;20659;-66
2021/12/17 04:58:37;;;;;;;15.37;3.60;;;5.20;99.90;;;;;;5014277;28;20313;-67
2021/12/17 05:01:10;;;;;;;10.40;3.30;;;5.20;99.90;;;;;;5027073;28;20244;-66
2021/12/17 05:03:36;;;;;;;10.43;3.30;;;5.20;99.90;;;;;;5027335;28;20200;-66
2021/12/17 05:06:05;;;;;;;9.13;2.93;;;5.20;99.90;;;;;;5013442;28;20269;-66
2021/12/17 05:08:32;;;;;;;10.27;2.93;;;5.20;99.90;;;;;;5017505;28;20279;-66
2021/12/17 05:11:26;;;;;;;10.33;3.00;;;5.20;99.90;;;;;;5023503;28;20217;-66
2021/12/17 05:19:32;;;;;;;10.20;3.37;;;5.20;99.90;;;;;;5026557;28;20226;-65
2021/12/17 05:22:05;;;;;;;10.33;3.50;;;5.20;99.90;;;;;;5025102;28;20198;-67
2021/12/17 05:24:32;;;;;;;12.33;3.37;;;5.20;99.90;;;;;;5032830;28;20293;-67
2021/12/17 05:26:59;;;;;;;18.10;4.03;;;5.20;99.90;;;;;;5028973;28;20231;-67
2021/12/17 05:29:26;;;;;;;11.63;3.77;;;5.20;99.90;;;;;;5032901;28;20737;-66
2021/12/17 05:31:52;;;;;;;15.37;3.63;;;5.20;99.90;;;;;;5033138;28;20262;-67
2021/12/17 05:34:20;;;;;;;11.20;3.30;;;5.20;99.90;;;;;;5032487;28;20238;-66
2021/12/17 05:36:46;;;;;;;16.03;4.80;;;5.20;99.90;;;;;;5032807;28;20317;-67
2021/12/17 05:39:15;;;;;;;12.13;4.00;;;5.20;99.90;;;;;;5032214;28;20226;-67
2021/12/17 05:41:42;;;;;;;10.77;3.47;;;5.20;99.90;;;;;;5032556;28;20689;-67
2021/12/17 05:44:09;;;;;;;15.73;4.57;;;5.20;99.90;;;;;;5024417;28;20235;-67
2021/12/17 05:46:49;;;;;;;10.00;3.07;;;5.20;99.90;;;;;;5021626;28;20254;-66
2021/12/17 05:49:16;;;;;;;15.70;3.30;;;5.10;99.90;;;;;;5029895;28;20641;-66
2021/12/17 05:51:43;;;;;;;9.30;3.30;;;5.10;99.90;;;;;;5013018;28;20313;-66
2021/12/17 05:54:10;;;;;;;15.17;3.60;;;5.10;99.90;;;;;;5013216;28;20306;-66
2021/12/17 05:56:38;;;;;;;9.23;3.60;;;5.10;99.90;;;;;;5012490;28;20227;-66
2021/12/17 05:59:06;;;;;;;12.90;4.27;;;5.10;99.90;;;;;;5011702;28;20223;-66
2021/12/17 06:01:33;;;;;;;13.37;4.60;;;5.10;99.90;;;;;;5024852;28;20214;-66
2021/12/17 06:04:00;;;;;;;12.27;3.50;;;5.10;99.90;;;;;;5032072;28;20207;-67
2021/12/17 06:06:29;;;;;;;9.90;3.50;;;5.10;99.90;;;;;;5016968;28;20677;-66
2021/12/17 06:08:56;;;;;;;9.67;3.77;;;5.10;99.90;;;;;;5015922;28;20298;-67
2021/12/17 06:11:23;;;;;;;14.47;4.23;;;5.00;99.90;;;;;;5023891;28;20310;-67
2021/12/17 06:13:51;;;;;;;15.53;4.33;;;5.10;99.90;;;;;;5011807;28;20661;-66
2021/12/17 06:16:18;;;;;;;13.57;3.80;;;5.10;99.90;;;;;;5011696;28;20294;-66
2021/12/17 06:18:45;;;;;;;13.50;4.17;;;5.10;99.90;;;;;;5011399;28;20569;-66
2021/12/17 06:21:12;;;;;;;12.70;3.83;;;5.00;99.90;;;;;;5011947;28;20270;-67
2021/12/17 06:23:39;;;;;;;15.83;4.13;;;5.00;99.90;;;;;;5011390;28;20215;-66
2021/12/17 06:26:06;;;;;;;11.47;3.83;;;5.00;99.90;;;;;;5020362;28;20298;-66
2021/12/17 06:28:33;;;;;;;13.83;3.87;;;5.00;99.90;;;;;;5024873;28;20293;-67
2021/12/17 06:31:02;;;;;;;18.33;3.97;;;5.00;99.90;;;;;;5011586;28;20264;-66
2021/12/17 06:33:29;;;;;;;10.80;3.93;;;5.00;99.90;;;;;;5012345;28;20651;-65
2021/12/17 06:35:56;;;;;;;14.40;4.17;;;4.90;99.90;;;;;;5017547;28;20238;-66
2021/12/17 06:38:24;;;;;;;11.93;4.20;;;4.90;99.90;;;;;;5019925;28;20273;-67
2021/12/17 06:40:53;;;;;;;10.53;4.13;;;4.90;99.90;;;;;;5012102;28;20639;-66
2021/12/17 06:43:24;;;;;;;15.77;3.80;;;4.90;99.90;;;;;;5013057;28;20600;-66
2021/12/17 06:45:56;;;;;;;14.90;4.30;;;4.90;99.90;;;;;;5011485;28;20203;-66
2021/12/17 06:48:28;;;;;;;15.83;4.57;;;4.80;99.90;;;;;;5018279;28;20286;-67
2021/12/17 06:59:22;;;;;;;14.47;3.57;;;4.90;99.90;;;;;;5020318;28;20314;-66
2021/12/17 07:10:28;;;;;;;13.07;3.50;;;4.90;99.90;;;;;;5025381;28;20207;-67
2021/12/17 07:21:23;;;;;;;18.97;4.93;;;4.80;99.90;;;;;;5010833;28;20787;-67
2021/12/17 07:35:24;;;;;;;12.37;4.50;;;4.70;99.90;;;;;;5128375;27;20349;-67
2021/12/17 07:40:37;;;;;;;15.20;5.13;;;4.70;99.90;;;;;;5131278;27;20674;-68
2021/12/17 07:43:12;;;;;;;12.13;4.10;;;4.70;99.90;;;;;;5128349;28;20232;-68
2021/12/17 07:45:39;;;;;;;12.40;4.60;;;4.70;99.90;;;;;;5129169;27;20258;-69
2021/12/17 07:48:07;;;;;;;24.47;5.67;;;4.70;99.90;;;;;;5131739;27;20702;-69
2021/12/17 07:50:34;;;;;;;13.50;5.07;;;4.70;99.90;;;;;;5143515;27;20212;-70
2021/12/17 07:53:01;;;;;;;14.27;5.20;;;4.70;99.90;;;;;;5133375;27;20294;-70
2021/12/17 07:55:28;;;;;;;11.80;5.43;;;4.70;99.90;;;;;;5129366;27;20754;-70
2021/12/17 07:57:55;;;;;;;15.17;5.13;;;4.70;99.90;;;;;;5148226;27;20230;-70
2021/12/17 08:00:24;;;;;;;15.30;5.83;;;4.70;99.90;;;;;;5150659;27;20206;-70
2021/12/17 08:02:51;;;;;;;12.60;5.47;;;4.70;99.90;;;;;;5165194;27;20690;-71
2021/12/17 08:05:18;;;;;;;13.87;5.43;;;4.70;99.90;;;;;;5161137;27;20290;-71
2021/12/17 08:07:46;;;;;;;14.30;5.47;;;4.70;99.90;;;;;;5158199;27;20207;-71
2021/12/17 08:10:13;;;;;;;12.37;5.50;;;4.80;99.90;;;;;;5160467;27;20207;-70
2021/12/17 08:12:40;;;;;;;16.83;5.30;;;4.80;99.90;;;;;;5134684;27;20238;-70
2021/12/17 08:15:11;;;;;;;9.67;5.07;;;4.70;99.90;;;;;;5146418;27;20230;-71
2021/12/17 08:17:53;;;;;;;15.23;6.07;;;4.80;99.90;;;;;;5164826;27;20198;-73
2021/12/17 08:23:40;;;;;;;13.57;6.03;;;4.80;99.90;;;;;;5149847;27;20692;-71
2021/12/17 08:26:04;;;;;;;14.57;5.33;;;4.70;99.90;;;;;;5149222;27;20241;-69
2021/12/17 08:28:53;;;;;;;14.40;5.60;;;4.70;99.90;;;;;;5144179;27;20202;-70
2021/12/17 08:31:18;;;;;;;15.87;6.50;;;4.70;99.90;;;;;;5153495;27;20278;-71
2021/12/17 08:33:47;;;;;;;13.23;5.83;;;4.70;99.90;;;;;;5149112;27;20242;-70
2021/12/17 08:36:14;;;;;;;12.63;5.37;;;4.70;99.90;;;;;;5146057;27;20206;-72
2021/12/17 08:38:42;;;;;;;16.87;6.83;;;4.70;99.90;;;;;;5135183;27;20236;-70
2021/12/17 08:41:09;;;;;;;16.77;5.50;;;4.70;99.90;;;;;;5135031;27;20281;-71
2021/12/17 08:43:36;;;;;;;17.83;6.43;;;4.80;99.90;;;;;;5150512;27;20202;-71
2021/12/17 08:46:03;;;;;;;11.70;5.73;;;4.70;99.90;;;;;;5136572;27;20337;-72
2021/12/17 08:48:31;;;;;;;15.17;5.93;;;4.70;99.90;;;;;;5142029;27;20636;-71
2021/12/17 08:51:01;;;;;;;11.13;6.30;;;4.70;99.90;;;;;;5135837;27;20685;-70
2021/12/17 08:53:28;;;;;;;19.33;5.93;;;4.80;99.90;;;;;;5135899;27;20743;-73
2021/12/17 08:55:55;;;;;;;12.50;5.57;;;4.80;99.90;;;;;;5141595;27;20206;-70
2021/12/17 08:58:22;;;;;;;10.87;5.90;;;4.80;99.90;;;;;;5151120;27;20298;-70
2021/12/17 09:00:49;;;;;;;15.70;5.50;;;4.80;99.90;;;;;;5147676;27;20298;-70
2021/12/17 09:03:16;;;;;;;12.53;5.67;;;4.90;99.90;;;;;;5138843;27;20207;-73
2021/12/17 09:05:45;;;;;;;13.13;5.90;;;4.90;99.90;;;;;;5144651;27;20250;-72
2021/12/17 09:08:16;;;;;;;14.97;5.70;;;4.90;99.90;;;;;;5143146;27;20207;-72
2021/12/17 09:10:45;;;;;;;16.33;6.17;;;4.90;99.90;;;;;;5145388;27;20203;-72
2021/12/17 09:13:12;;;;;;;12.03;5.67;;;4.90;99.90;;;;;;5138850;27;20211;-70
2021/12/17 09:15:39;;;;;;;10.47;5.07;;;4.90;99.90;;;;;;5141589;27;20213;-72
2021/12/17 09:18:06;;;;;;;14.63;5.80;;;4.90;99.90;;;;;;5139448;27;20575;-72
2021/12/17 09:20:34;;;;;;;12.47;5.70;;;4.90;99.90;;;;;;5134394;27;20199;-71
2021/12/17 09:23:01;;;;;;;18.10;6.30;;;4.90;99.90;;;;;;5141352;27;20212;-70
2021/12/17 09:25:29;;;;;;;14.90;5.20;;;4.90;99.90;;;;;;5137862;27;20315;-70
2021/12/17 09:27:56;;;;;;;13.47;5.97;;;4.90;99.90;;;;;;5137754;27;20732;-70
2021/12/17 09:30:23;;;;;;;12.17;5.37;;;5.00;99.90;;;;;;5138304;27;20242;-70
2021/12/17 09:32:50;;;;;;;12.77;5.40;;;4.90;99.90;;;;;;5139544;27;20317;-70
2021/12/17 09:35:17;;;;;;;11.23;5.27;;;5.00;99.90;;;;;;5139311;27;20563;-72
2021/12/17 09:37:44;;;;;;;12.23;5.50;;;5.00;99.90;;;;;;5139553;27;20202;-71
2021/12/17 09:40:12;;;;;;;14.07;6.27;;;5.00;99.90;;;;;;5149654;27;20276;-70
2021/12/17 09:42:43;;;;;;;14.93;5.37;;;5.00;99.90;;;;;;5133959;27;20206;-69
2021/12/17 09:45:10;;;;;;;9.90;5.60;;;5.00;99.90;;;;;;5137155;27;20202;-71
2021/12/17 09:47:37;;;;;;;13.17;5.43;;;5.00;99.90;;;;;;5131917;27;20216;-71
2021/12/17 09:50:06;;;;;;;18.20;5.80;;;5.00;99.90;;;;;;5144623;27;20207;-70
2021/12/17 09:52:33;;;;;;;12.50;5.37;;;5.10;99.90;;;;;;5133505;27;20218;-70
2021/12/17 09:55:00;;;;;;;14.60;6.20;;;5.10;99.90;;;;;;5133600;27;20582;-69
2021/12/17 09:57:29;;;;;;;16.47;6.03;;;5.10;99.90;;;;;;5134605;27;20629;-69
2021/12/17 09:59:57;;;;;;;13.03;5.03;;;5.10;99.90;;;;;;5146600;27;20241;-69
2021/12/17 10:02:24;;;;;;;10.53;5.00;;;5.20;99.90;;;;;;5123881;27;20226;-69
2021/12/17 10:04:56;;;;;;;13.10;5.57;;;5.10;99.90;;;;;;5143328;27;20865;-70
2021/12/17 10:07:26;;;;;;;12.83;5.37;;;5.20;99.90;;;;;;5139882;27;20207;-71
2021/12/17 10:09:55;;;;;;;11.40;5.10;;;5.30;99.90;;;;;;5151328;27;20206;-71
2021/12/17 10:12:24;;;;;;;10.97;5.23;;;5.40;99.90;;;;;;5141137;27;20647;-70
2021/12/17 10:15:07;;;;;;;11.90;4.60;;;5.50;99.90;;;;;;5139386;27;20294;-71
2021/12/17 10:17:34;;;;;;;14.97;5.07;;;5.60;99.90;;;;;;5133785;27;21525;-71
2021/12/17 10:20:06;;;;;;;12.53;4.67;;;5.80;99.90;;;;;;5137339;27;20237;-71
2021/12/17 10:22:34;;;;;;;16.00;5.43;;;5.90;99.90;;;;;;5127136;27;20199;-71
2021/12/17 10:25:06;;;;;;;11.43;5.03;;;6.00;99.90;;;;;;5126029;27;20276;-69
2021/12/17 10:27:35;;;;;;;8.60;4.97;;;6.00;99.90;;;;;;5137712;27;20285;-69
2021/12/17 10:30:13;;;;;;;11.23;4.53;;;6.10;99.90;;;;;;5134281;27;20280;-70
2021/12/17 10:32:42;;;;;;;11.23;4.30;;;6.10;99.90;;;;;;5143392;27;20638;-69
2021/12/17 10:35:11;;;;;;;12.53;5.10;;;6.10;99.90;;;;;;5134281;27;20290;-71
2021/12/17 10:37:41;;;;;;;8.60;4.23;;;6.10;99.90;;;;;;5133647;27;20250;-70
2021/12/17 10:40:26;;;;;;;10.23;4.57;;;6.20;99.90;;;;;;5132346;27;20549;-72
2021/12/17 10:43:03;;;;;;;8.83;4.10;;;6.30;99.90;;;;;;5136415;27;20676;-71
2021/12/17 10:45:37;;;;;;;10.97;4.20;;;6.60;99.90;;;;;;5125348;27;20198;-70
2021/12/17 10:48:23;;;;;;;9.27;4.03;;;6.80;99.90;;;;;;5130624;27;20206;-70
2021/12/17 10:50:52;;;;;;;8.27;4.27;;;6.90;99.90;;;;;;5140987;27;20203;-70
2021/12/17 10:53:23;;;;;;;9.60;4.17;;;6.80;99.90;;;;;;5135581;27;20211;-71
2021/12/17 10:55:50;;;;;;;9.33;4.73;;;6.70;99.90;;;;;;5131738;27;20226;-70
2021/12/17 10:58:17;;;;;;;8.97;3.67;;;6.70;99.90;;;;;;5143037;27;20302;-71
2021/12/17 11:00:54;;;;;;;11.73;4.60;;;6.60;99.90;;;;;;5132647;27;20234;-70
2021/12/17 11:03:22;;;;;;;10.27;4.57;;;6.60;99.90;;;;;;5140501;27;20198;-71
2021/12/17 11:05:49;;;;;;;9.57;3.87;;;6.80;99.90;;;;;;5131776;27;20250;-70
2021/12/17 11:08:33;;;;;;;12.03;4.37;;;7.30;99.90;;;;;;5131167;27;20217;-71
2021/12/17 11:11:08;;;;;;;10.63;3.97;;;8.40;99.90;;;;;;5132223;27;20663;-71
2021/12/17 11:13:35;;;;;;;9.90;4.10;;;9.00;99.90;;;;;;5135801;27;20198;-70
2021/12/17 11:16:05;;;;;;;8.33;3.70;;;9.50;99.90;;;;;;5135768;27;20707;-70
2021/12/17 11:18:32;;;;;;;5.50;3.10;;;10.10;99.90;;;;;;5131373;27;20210;-70
2021/12/17 11:20:59;;;;;;;10.10;3.47;;;11.60;99.90;;;;;;5137121;27;20289;-71
2021/12/17 11:23:28;;;;;;;7.43;3.53;;;12.00;99.90;;;;;;5138080;27;20234;-70
2021/12/17 11:25:55;;;;;;;8.27;3.77;;;11.70;99.90;;;;;;5136314;27;20318;-70
2021/12/17 11:28:23;;;;;;;10.63;3.77;;;11.20;99.90;;;;;;5131980;27;20207;-71
2021/12/17 11:30:52;;;;;;;8.37;3.57;;;10.60;99.90;;;;;;5132181;27;20849;-71
2021/12/17 11:33:20;;;;;;;12.97;3.63;;;9.90;99.90;;;;;;5133029;28;20203;-70
2021/12/17 11:35:49;;;;;;;8.97;3.80;;;9.40;99.90;;;;;;5132174;27;20298;-71
2021/12/17 11:38:25;;;;;;;11.17;3.70;;;8.90;99.90;;;;;;5143360;27;20630;-71
2021/12/17 11:40:55;;;;;;;6.77;3.23;;;8.40;99.90;;;;;;5133593;27;20198;-71
2021/12/17 11:43:51;;;;;;;10.73;3.70;;;8.10;99.90;;;;;;5132967;28;20298;-70
2021/12/17 11:46:20;;;;;;;8.07;4.07;;;7.70;99.90;;;;;;5131938;27;20216;-70
2021/12/17 11:48:53;;;;;;;7.10;3.33;;;7.50;99.90;;;;;;5132810;28;20302;-71
2021/12/17 11:51:23;;;;;;;7.10;3.60;;;7.30;99.90;;;;;;5148243;27;20233;-71
2021/12/17 11:54:00;;;;;;;9.03;4.07;;;7.20;99.90;;;;;;5132809;27;20259;-70
2021/12/17 11:56:45;;;;;;;6.20;3.00;;;7.10;99.90;;;;;;5133905;27;22002;-71
2021/12/17 11:59:49;;;;;;;8.27;3.30;;;6.90;99.90;;;;;;5131811;28;20203;-70
2021/12/17 12:02:20;;;;;;;10.97;3.30;;;6.80;99.90;;;;;;5115027;28;20230;-71
2021/12/17 12:05:01;;;;;;;10.67;3.53;;;6.70;99.90;;;;;;5133777;27;20246;-70
2021/12/17 12:07:37;;;;;;;10.33;3.50;;;6.60;99.90;;;;;;5134279;27;20305;-71
2021/12/17 12:10:22;;;;;;;5.87;2.40;;;6.50;99.90;;;;;;5135585;27;20229;-72
2021/12/17 12:12:58;;;;;;;11.33;3.70;;;6.40;99.90;;;;;;5128348;27;20593;-70
2021/12/17 12:15:43;;;;;;;6.90;2.80;;;6.40;99.90;;;;;;5146249;27;20199;-72
2021/12/17 12:18:17;;;;;;;9.17;3.10;;;6.30;99.90;;;;;;5136920;27;20314;-70
2021/12/17 12:20:58;;;;;;;8.40;3.13;;;6.30;99.90;;;;;;5123586;27;20228;-70
2021/12/17 12:23:40;;;;;;;6.30;3.20;;;6.20;99.90;;;;;;5149463;27;20460;-70
2021/12/17 12:26:16;;;;;;;7.40;3.33;;;6.20;99.90;;;;;;5136652;27;20238;-69
2021/12/17 12:29:05;;;;;;;6.90;3.00;;;6.20;99.90;;;;;;5137832;27;20194;-71
2021/12/17 12:31:53;;;;;;;9.10;3.10;;;6.10;99.90;;;;;;5136593;27;20250;-69
2021/12/17 12:34:21;;;;;;;8.10;2.80;;;6.10;99.90;;;;;;5136197;27;20200;-70
2021/12/17 12:36:53;;;;;;;5.87;3.10;;;6.00;99.90;;;;;;5136050;27;20199;-71
2021/12/17 12:39:23;;;;;;;8.43;3.50;;;6.00;99.90;;;;;;5137253;27;20203;-72
2021/12/17 12:41:59;;;;;;;7.97;3.27;;;6.00;99.90;;;;;;5150453;27;20258;-71
2021/12/17 12:45:05;;;;;;;5.83;2.57;;;5.90;99.90;;;;;;5138503;27;20206;-71
2021/12/17 12:47:43;;;;;;;6.23;3.20;;;5.90;99.90;;;;;;5134806;27;20256;-72
2021/12/17 12:50:12;;;;;;;6.97;2.97;;;5.90;99.90;;;;;;5134497;27;20796;-70
2021/12/17 12:52:45;;;;;;;5.67;2.80;;;5.80;99.90;;;;;;5150179;27;20566;-70
2021/12/17 12:55:20;;;;;;;7.90;2.93;;;5.80;99.90;;;;;;5122106;27;20239;-71
2021/12/17 12:57:49;;;;;;;10.10;3.23;;;5.70;99.90;;;;;;5142703;27;20269;-70
2021/12/17 13:00:21;;;;;;;7.70;2.90;;;5.70;99.90;;;;;;5128919;27;20265;-69
2021/12/17 13:02:52;;;;;;;5.80;2.50;;;5.70;99.90;;;;;;5132688;27;20687;-69
2021/12/17 13:05:19;;;;;;;5.17;2.57;;;5.60;99.90;;;;;;5132361;27;20652;-69
2021/12/17 13:07:50;;;;;;;7.90;2.70;;;5.60;99.90;;;;;;5134771;27;20256;-69
2021/12/17 13:10:19;;;;;;;7.40;2.97;;;5.60;99.90;;;;;;5139622;27;20207;-70
2021/12/17 13:12:58;;;;;;;6.37;2.70;;;5.60;99.90;;;;;;5134813;27;20215;-70
2021/12/17 13:15:40;;;;;;;7.30;3.10;;;5.50;99.90;;;;;;5130907;27;20206;-71
2021/12/17 13:21:04;;;;;;;8.20;2.67;;;5.50;99.90;;;;;;5146833;27;20208;-70
2021/12/17 13:23:38;;;;;;;10.03;3.60;;;5.50;99.90;;;;;;5148498;27;20195;-69
2021/12/17 13:26:07;;;;;;;6.87;3.20;;;5.50;99.90;;;;;;5143011;27;20793;-69
2021/12/17 13:29:05;;;;;;;6.17;2.80;;;5.50;99.90;;;;;;5149947;27;20651;-72
2021/12/17 13:31:38;;;;;;;6.90;2.53;;;5.40;99.90;;;;;;5138709;27;20767;-70
2021/12/17 13:34:10;;;;;;;7.43;2.90;;;5.40;99.90;;;;;;5149647;27;20199;-71
2021/12/17 13:36:43;;;;;;;8.53;3.30;;;5.40;99.90;;;;;;5139895;27;20629;-71
2021/12/17 13:39:13;;;;;;;6.83;2.70;;;5.40;99.90;;;;;;5147445;27;20238;-70
2021/12/17 13:41:42;;;;;;;10.20;3.00;;;5.50;99.90;;;;;;5150933;27;20235;-69
2021/12/17 13:44:25;;;;;;;7.77;3.13;;;5.50;99.90;;;;;;5144202;27;20353;-69
2021/12/17 13:46:52;;;;;;;8.23;3.17;;;5.40;99.90;;;;;;5145152;27;20704;-69
2021/12/17 13:49:20;;;;;;;9.33;3.30;;;5.50;99.90;;;;;;5143719;27;20615;-70
2021/12/17 13:51:47;;;;;;;6.07;3.40;;;5.50;99.90;;;;;;5131464;27;20251;-70
2021/12/17 13:54:16;;;;;;;8.83;2.83;;;5.50;99.90;;;;;;5146537;27;20230;-70
2021/12/17 13:56:44;;;;;;;7.63;2.97;;;5.50;99.90;;;;;;5147699;27;20250;-69
2021/12/17 13:59:10;;;;;;;6.37;2.73;;;5.50;99.90;;;;;;5136747;27;20195;-69
2021/12/17 14:01:38;;;;;;;11.97;3.27;;;5.50;99.90;;;;;;5145274;27;20682;-70
2021/12/17 14:04:14;;;;;;;8.67;3.33;;;5.50;99.90;;;;;;5138692;27;20240;-70
2021/12/17 14:06:52;;;;;;;9.60;4.00;;;5.10;99.90;;;;;;5136672;27;20269;-70
2021/12/17 14:09:23;;;;;;;7.97;3.23;;;5.40;99.90;;;;;;5138765;27;20209;-70
2021/12/17 14:11:51;;;;;;;6.43;3.47;;;5.40;99.90;;;;;;5143142;27;20207;-72
2021/12/17 14:14:22;;;;;;;5.03;2.67;;;5.40;99.90;;;;;;5137187;27;20340;-71
2021/12/17 14:16:56;;;;;;;8.63;3.03;;;5.40;99.90;;;;;;5130149;27;20265;-71
2021/12/17 14:19:36;;;;;;;8.17;3.40;;;5.40;99.90;;;;;;5137480;27;20205;-69
2021/12/17 14:22:18;;;;;;;7.60;2.80;;;5.40;99.90;;;;;;5133341;27;20227;-69
2021/12/17 14:24:46;;;;;;;10.57;3.17;;;5.40;99.90;;;;;;5128876;27;20262;-70
2021/12/17 14:27:13;;;;;;;8.93;3.70;;;5.40;99.90;;;;;;5143308;27;20640;-71
2021/12/17 14:29:40;;;;;;;6.80;3.17;;;5.40;99.90;;;;;;5133537;27;20282;-71
2021/12/17 14:32:07;;;;;;;8.77;3.23;;;5.40;99.90;;;;;;5132789;27;20217;-68
2021/12/17 14:34:41;;;;;;;4.53;2.67;;;5.40;99.90;;;;;;5134010;27;20286;-70
2021/12/17 14:37:08;;;;;;;10.07;3.30;;;5.40;99.90;;;;;;5142070;27;20209;-70
2021/12/17 14:39:38;;;;;;;8.27;3.43;;;5.30;99.90;;;;;;5123364;27;20223;-70
2021/12/17 14:42:08;;;;;;;6.00;2.90;;;5.30;99.90;;;;;;5138907;27;20618;-70
2021/12/17 14:44:40;;;;;;;5.00;3.10;;;5.30;99.90;;;;;;5135392;27;20246;-70
2021/12/17 14:47:17;;;;;;;6.83;3.00;;;5.30;99.90;;;;;;5132825;27;20499;-69
2021/12/17 15:01:11;;;;;;;7.73;2.63;;;5.30;99.90;;;;;;5136364;27;20342;-69
2021/12/17 15:03:42;;;;;;;9.80;3.47;;;5.30;99.90;;;;;;5134945;27;20206;-72
2021/12/17 15:06:12;;;;;;;7.60;3.70;;;5.30;99.90;;;;;;5127632;27;20490;-71
2021/12/17 15:08:40;;;;;;;6.37;3.00;;;5.30;99.90;;;;;;5134080;27;20230;-70
2021/12/17 15:11:15;;;;;;;8.63;3.57;;;5.30;99.90;;;;;;5123275;27;20628;-69
2021/12/17 15:13:43;;;;;;;8.07;2.93;;;5.30;99.90;;;;;;5128502;27;20205;-70
2021/12/17 15:16:10;;;;;;;9.30;3.23;;;5.30;99.90;;;;;;5130507;27;20672;-69
2021/12/17 15:18:39;;;;;;;7.07;3.27;;;5.30;99.90;;;;;;5133222;27;20227;-70
2021/12/17 15:21:06;;;;;;;8.73;3.70;;;5.30;99.90;;;;;;5124636;27;20203;-69
2021/12/17 15:23:34;;;;;;;5.97;3.20;;;5.40;99.90;;;;;;5131373;27;20311;-70
2021/12/17 15:26:01;;;;;;;6.33;3.50;;;5.40;99.90;;;;;;5129349;27;20627;-70